sensor_id;sensor_type;location;lat;lon;timestamp;temperature;humidity
53844;DHT22;39744;53.314;5.710;2023-11-21T00:01:45;9.60;99.90
53844;DHT22;39744;53.314;5.710;2023-11-21T00:04:11;10.20;99.90
53844;DHT22;39744;53.314;5.710;2023-11-21T00:06:36;10.10;99.90
53844;DHT22;39744;53.314;5.710;2023-11-21T00:09:02;10.30;99.90
53844;DHT22;39744;53.314;5.710;2023-11-21T00:11:28;10.20;99.90
53844;DHT22;39744;53.314;5.710;2023-11-21T00:13:54;9.70;99.90
53844;DHT22;39744;53.314;5.710;2023-11-21T00:16:20;10.00;99.90
53844;DHT22;39744;53.314;5.710;2023-11-21T00:18:47;10.20;99.90
53844;DHT22;39744;53.314;5.710;2023-11-21T00:21:13;10.10;99.90
53844;DHT22;39744;53.314;5.710;2023-11-21T00:23:38;10.00;99.90
53844;DHT22;39744;53.314;5.710;2023-11-21T00:26:04;10.00;99.90
53844;DHT22;39744;53.314;5.710;2023-11-21T00:28:29;10.70;99.90
53844;DHT22;39744;53.314;5.710;2023-11-21T00:30:55;10.10;99.90
53844;DHT22;39744;53.314;5.710;2023-11-21T00:33:20;10.80;99.90
53844;DHT22;39744;53.314;5.710;2023-11-21T00:35:46;10.10;99.90
53844;DHT22;39744;53.314;5.710;2023-11-21T00:38:12;10.10;99.90
53844;DHT22;39744;53.314;5.710;2023-11-21T00:40:37;10.20;99.90
53844;DHT22;39744;53.314;5.710;2023-11-21T00:43:03;10.40;99.90
53844;DHT22;39744;53.314;5.710;2023-11-21T00:45:28;10.60;99.90
53844;DHT22;39744;53.314;5.710;2023-11-21T00:47:54;10.30;99.90
53844;DHT22;39744;53.314;5.710;2023-11-21T00:50:20;10.30;99.90
53844;DHT22;39744;53.314;5.710;2023-11-21T00:52:45;10.60;99.90
53844;DHT22;39744;53.314;5.710;2023-11-21T00:55:11;10.40;99.90
53844;DHT22;39744;53.314;5.710;2023-11-21T00:57:37;10.60;99.90
53844;DHT22;39744;53.314;5.710;2023-11-21T01:00:03;10.40;99.90
53844;DHT22;39744;53.314;5.710;2023-11-21T01:02:33;10.30;99.90
53844;DHT22;39744;53.314;5.710;2023-11-21T01:04:58;10.40;99.90
53844;DHT22;39744;53.314;5.710;2023-11-21T01:07:24;10.70;99.90
53844;DHT22;39744;53.314;5.710;2023-11-21T01:09:49;10.70;99.90
53844;DHT22;39744;53.314;5.710;2023-11-21T01:12:15;10.60;99.90
53844;DHT22;39744;53.314;5.710;2023-11-21T01:14:42;10.60;99.90
53844;DHT22;39744;53.314;5.710;2023-11-21T01:17:08;10.50;99.90
53844;DHT22;39744;53.314;5.710;2023-11-21T01:19:33;10.60;99.90
53844;DHT22;39744;53.314;5.710;2023-11-21T01:21:59;10.60;99.90
53844;DHT22;39744;53.314;5.710;2023-11-21T01:24:25;10.60;99.90
53844;DHT22;39744;53.314;5.710;2023-11-21T01:26:50;10.50;99.90
53844;DHT22;39744;53.314;5.710;2023-11-21T01:29:16;10.30;99.90
53844;DHT22;39744;53.314;5.710;2023-11-21T01:31:41;10.60;99.90
53844;DHT22;39744;53.314;5.710;2023-11-21T01:34:07;10.20;99.90
53844;DHT22;39744;53.314;5.710;2023-11-21T01:36:32;10.30;99.90
53844;DHT22;39744;53.314;5.710;2023-11-21T01:38:58;10.70;99.90
53844;DHT22;39744;53.314;5.710;2023-11-21T01:41:25;10.30;99.90
53844;DHT22;39744;53.314;5.710;2023-11-21T01:43:52;10.70;99.90
53844;DHT22;39744;53.314;5.710;2023-11-21T01:46:19;10.20;99.90
53844;DHT22;39744;53.314;5.710;2023-11-21T01:48:45;10.70;99.90
53844;DHT22;39744;53.314;5.710;2023-11-21T01:51:11;10.50;99.90
53844;DHT22;39744;53.314;5.710;2023-11-21T01:53:37;10.60;99.90
53844;DHT22;39744;53.314;5.710;2023-11-21T01:56:02;10.30;99.90
53844;DHT22;39744;53.314;5.710;2023-11-21T01:58:30;10.30;99.90
53844;DHT22;39744;53.314;5.710;2023-11-21T02:00:57;10.20;99.90
53844;DHT22;39744;53.314;5.710;2023-11-21T02:03:23;10.30;99.90
53844;DHT22;39744;53.314;5.710;2023-11-21T02:05:49;10.50;99.90
53844;DHT22;39744;53.314;5.710;2023-11-21T02:08:14;10.50;99.90
53844;DHT22;39744;53.314;5.710;2023-11-21T02:10:40;10.30;99.90
53844;DHT22;39744;53.314;5.710;2023-11-21T02:13:06;10.30;99.90
53844;DHT22;39744;53.314;5.710;2023-11-21T02:15:31;10.60;99.90
53844;DHT22;39744;53.314;5.710;2023-11-21T02:17:57;10.20;99.90
53844;DHT22;39744;53.314;5.710;2023-11-21T02:20:23;10.20;99.90
53844;DHT22;39744;53.314;5.710;2023-11-21T02:22:50;10.40;99.90
53844;DHT22;39744;53.314;5.710;2023-11-21T02:25:27;10.20;99.90
53844;DHT22;39744;53.314;5.710;2023-11-21T02:27:56;10.30;99.90
53844;DHT22;39744;53.314;5.710;2023-11-21T02:30:22;10.10;99.90
53844;DHT22;39744;53.314;5.710;2023-11-21T02:32:48;10.20;99.90
53844;DHT22;39744;53.314;5.710;2023-11-21T02:35:14;10.10;99.90
53844;DHT22;39744;53.314;5.710;2023-11-21T02:37:41;10.30;99.90
53844;DHT22;39744;53.314;5.710;2023-11-21T02:40:08;10.20;99.90
53844;DHT22;39744;53.314;5.710;2023-11-21T02:42:35;10.20;99.90
53844;DHT22;39744;53.314;5.710;2023-11-21T02:45:00;10.50;99.90
53844;DHT22;39744;53.314;5.710;2023-11-21T02:47:26;10.50;99.90
53844;DHT22;39744;53.314;5.710;2023-11-21T02:49:51;10.10;99.90
53844;DHT22;39744;53.314;5.710;2023-11-21T02:52:18;10.50;99.90
53844;DHT22;39744;53.314;5.710;2023-11-21T02:54:44;10.20;99.90
53844;DHT22;39744;53.314;5.710;2023-11-21T02:57:10;10.50;99.90
53844;DHT22;39744;53.314;5.710;2023-11-21T02:59:35;10.40;99.90
53844;DHT22;39744;53.314;5.710;2023-11-21T03:02:01;10.10;99.90
53844;DHT22;39744;53.314;5.710;2023-11-21T03:04:26;10.10;99.90
53844;DHT22;39744;53.314;5.710;2023-11-21T03:06:52;10.30;99.90
53844;DHT22;39744;53.314;5.710;2023-11-21T03:09:17;10.10;99.90
53844;DHT22;39744;53.314;5.710;2023-11-21T03:11:43;10.60;99.90
53844;DHT22;39744;53.314;5.710;2023-11-21T03:14:08;10.40;99.90
53844;DHT22;39744;53.314;5.710;2023-11-21T03:16:34;10.30;99.90
53844;DHT22;39744;53.314;5.710;2023-11-21T03:18:59;10.30;99.90
53844;DHT22;39744;53.314;5.710;2023-11-21T03:21:25;10.30;99.90
53844;DHT22;39744;53.314;5.710;2023-11-21T03:23:51;10.30;99.90
53844;DHT22;39744;53.314;5.710;2023-11-21T03:26:17;10.10;99.90
53844;DHT22;39744;53.314;5.710;2023-11-21T03:28:43;10.10;99.90
53844;DHT22;39744;53.314;5.710;2023-11-21T03:31:08;10.00;99.90
53844;DHT22;39744;53.314;5.710;2023-11-21T03:33:34;10.40;99.90
53844;DHT22;39744;53.314;5.710;2023-11-21T03:36:00;10.10;99.90
53844;DHT22;39744;53.314;5.710;2023-11-21T03:38:26;10.00;99.90
53844;DHT22;39744;53.314;5.710;2023-11-21T03:40:51;9.90;99.90
53844;DHT22;39744;53.314;5.710;2023-11-21T03:43:17;10.20;99.90
53844;DHT22;39744;53.314;5.710;2023-11-21T03:45:42;10.00;99.90
53844;DHT22;39744;53.314;5.710;2023-11-21T03:48:08;10.20;99.90
53844;DHT22;39744;53.314;5.710;2023-11-21T03:50:34;9.90;99.90
53844;DHT22;39744;53.314;5.710;2023-11-21T03:53:00;9.80;99.90
53844;DHT22;39744;53.314;5.710;2023-11-21T03:55:25;9.80;99.90
53844;DHT22;39744;53.314;5.710;2023-11-21T03:57:51;10.20;99.90
53844;DHT22;39744;53.314;5.710;2023-11-21T04:00:17;10.10;99.90
53844;DHT22;39744;53.314;5.710;2023-11-21T04:02:42;10.00;99.90
53844;DHT22;39744;53.314;5.710;2023-11-21T04:05:08;9.60;99.90
53844;DHT22;39744;53.314;5.710;2023-11-21T04:07:34;9.70;99.90
53844;DHT22;39744;53.314;5.710;2023-11-21T04:10:00;9.60;99.90
53844;DHT22;39744;53.314;5.710;2023-11-21T04:12:25;9.60;99.90
53844;DHT22;39744;53.314;5.710;2023-11-21T04:14:51;10.10;99.90
53844;DHT22;39744;53.314;5.710;2023-11-21T04:17:19;9.80;99.90
53844;DHT22;39744;53.314;5.710;2023-11-21T04:19:45;10.10;99.90
53844;DHT22;39744;53.314;5.710;2023-11-21T04:22:11;10.20;99.90
53844;DHT22;39744;53.314;5.710;2023-11-21T04:24:37;9.60;99.90
53844;DHT22;39744;53.314;5.710;2023-11-21T04:27:03;10.30;99.90
53844;DHT22;39744;53.314;5.710;2023-11-21T04:29:29;9.80;99.90
53844;DHT22;39744;53.314;5.710;2023-11-21T04:31:55;9.90;99.90
53844;DHT22;39744;53.314;5.710;2023-11-21T04:34:20;9.80;99.90
53844;DHT22;39744;53.314;5.710;2023-11-21T04:36:46;9.90;99.90
53844;DHT22;39744;53.314;5.710;2023-11-21T04:39:11;10.20;99.90
53844;DHT22;39744;53.314;5.710;2023-11-21T04:41:37;9.70;99.90
53844;DHT22;39744;53.314;5.710;2023-11-21T04:44:05;10.10;99.90
53844;DHT22;39744;53.314;5.710;2023-11-21T04:46:31;9.50;99.90
53844;DHT22;39744;53.314;5.710;2023-11-21T04:48:57;10.10;99.90
53844;DHT22;39744;53.314;5.710;2023-11-21T04:51:23;9.50;99.90
53844;DHT22;39744;53.314;5.710;2023-11-21T04:53:48;9.90;99.90
53844;DHT22;39744;53.314;5.710;2023-11-21T04:56:14;10.10;99.90
53844;DHT22;39744;53.314;5.710;2023-11-21T04:58:41;9.50;99.90
53844;DHT22;39744;53.314;5.710;2023-11-21T05:01:07;9.40;99.90
53844;DHT22;39744;53.314;5.710;2023-11-21T05:03:32;9.50;99.90
53844;DHT22;39744;53.314;5.710;2023-11-21T05:05:59;9.90;99.90
53844;DHT22;39744;53.314;5.710;2023-11-21T05:08:25;9.90;99.90
53844;DHT22;39744;53.314;5.710;2023-11-21T05:10:51;9.50;99.90
53844;DHT22;39744;53.314;5.710;2023-11-21T05:13:17;9.80;99.90
53844;DHT22;39744;53.314;5.710;2023-11-21T05:15:44;9.40;99.90
53844;DHT22;39744;53.314;5.710;2023-11-21T05:18:09;9.80;99.90
53844;DHT22;39744;53.314;5.710;2023-11-21T05:20:35;9.40;99.90
53844;DHT22;39744;53.314;5.710;2023-11-21T05:23:01;9.50;99.90
53844;DHT22;39744;53.314;5.710;2023-11-21T05:25:27;9.40;99.90
53844;DHT22;39744;53.314;5.710;2023-11-21T05:27:52;9.20;99.90
53844;DHT22;39744;53.314;5.710;2023-11-21T05:30:20;9.80;99.90
53844;DHT22;39744;53.314;5.710;2023-11-21T05:32:46;9.40;99.90
53844;DHT22;39744;53.314;5.710;2023-11-21T05:35:12;9.60;99.90
53844;DHT22;39744;53.314;5.710;2023-11-21T05:37:41;9.30;99.90
53844;DHT22;39744;53.314;5.710;2023-11-21T05:40:07;9.60;99.90
53844;DHT22;39744;53.314;5.710;2023-11-21T05:42:36;9.20;99.90
53844;DHT22;39744;53.314;5.710;2023-11-21T05:45:03;9.30;99.90
53844;DHT22;39744;53.314;5.710;2023-11-21T05:47:36;9.70;99.90
53844;DHT22;39744;53.314;5.710;2023-11-21T05:50:02;9.40;99.90
53844;DHT22;39744;53.314;5.710;2023-11-21T05:52:27;9.40;99.90
53844;DHT22;39744;53.314;5.710;2023-11-21T05:54:53;9.70;99.90
53844;DHT22;39744;53.314;5.710;2023-11-21T05:57:18;9.20;99.90
53844;DHT22;39744;53.314;5.710;2023-11-21T05:59:44;9.30;99.90
53844;DHT22;39744;53.314;5.710;2023-11-21T06:02:11;9.10;99.90
53844;DHT22;39744;53.314;5.710;2023-11-21T06:04:36;9.40;99.90
53844;DHT22;39744;53.314;5.710;2023-11-21T06:07:02;9.20;99.90
53844;DHT22;39744;53.314;5.710;2023-11-21T06:09:28;9.40;99.90
53844;DHT22;39744;53.314;5.710;2023-11-21T06:11:53;9.20;99.90
53844;DHT22;39744;53.314;5.710;2023-11-21T06:14:19;9.10;99.90
53844;DHT22;39744;53.314;5.710;2023-11-21T06:16:44;9.10;99.90
53844;DHT22;39744;53.314;5.710;2023-11-21T06:19:10;9.50;99.90
53844;DHT22;39744;53.314;5.710;2023-11-21T06:21:36;9.50;99.90
53844;DHT22;39744;53.314;5.710;2023-11-21T06:24:02;9.40;99.90
53844;DHT22;39744;53.314;5.710;2023-11-21T06:26:27;9.20;99.90
53844;DHT22;39744;53.314;5.710;2023-11-21T06:28:53;9.10;99.90
53844;DHT22;39744;53.314;5.710;2023-11-21T06:31:19;9.00;99.90
53844;DHT22;39744;53.314;5.710;2023-11-21T06:33:44;9.10;99.90
53844;DHT22;39744;53.314;5.710;2023-11-21T06:36:10;9.00;99.90
53844;DHT22;39744;53.314;5.710;2023-11-21T06:38:37;9.10;99.90
53844;DHT22;39744;53.314;5.710;2023-11-21T06:41:02;9.00;99.90
53844;DHT22;39744;53.314;5.710;2023-11-21T06:43:29;9.20;99.90
53844;DHT22;39744;53.314;5.710;2023-11-21T06:45:56;9.00;99.90
53844;DHT22;39744;53.314;5.710;2023-11-21T06:48:22;9.40;99.90
53844;DHT22;39744;53.314;5.710;2023-11-21T06:50:47;9.30;99.90
53844;DHT22;39744;53.314;5.710;2023-11-21T06:53:13;8.90;99.90
53844;DHT22;39744;53.314;5.710;2023-11-21T06:55:38;9.20;99.90
53844;DHT22;39744;53.314;5.710;2023-11-21T06:58:04;8.90;99.90
53844;DHT22;39744;53.314;5.710;2023-11-21T07:00:30;9.00;99.90
53844;DHT22;39744;53.314;5.710;2023-11-21T07:02:56;9.10;99.90
53844;DHT22;39744;53.314;5.710;2023-11-21T07:05:21;9.00;99.90
53844;DHT22;39744;53.314;5.710;2023-11-21T07:07:47;9.30;99.90
53844;DHT22;39744;53.314;5.710;2023-11-21T07:10:13;9.30;99.90
53844;DHT22;39744;53.314;5.710;2023-11-21T07:12:39;9.10;99.90
53844;DHT22;39744;53.314;5.710;2023-11-21T07:15:05;9.10;99.90
53844;DHT22;39744;53.314;5.710;2023-11-21T07:17:37;9.10;99.90
53844;DHT22;39744;53.314;5.710;2023-11-21T07:20:02;8.90;99.90
53844;DHT22;39744;53.314;5.710;2023-11-21T07:22:28;9.10;99.90
53844;DHT22;39744;53.314;5.710;2023-11-21T07:24:54;9.10;99.90
53844;DHT22;39744;53.314;5.710;2023-11-21T07:27:22;9.10;99.90
53844;DHT22;39744;53.314;5.710;2023-11-21T07:29:47;9.30;99.90
53844;DHT22;39744;53.314;5.710;2023-11-21T07:32:13;9.00;99.90
53844;DHT22;39744;53.314;5.710;2023-11-21T07:34:40;9.20;99.90
53844;DHT22;39744;53.314;5.710;2023-11-21T07:37:06;9.00;99.90
53844;DHT22;39744;53.314;5.710;2023-11-21T07:39:32;8.90;99.90
53844;DHT22;39744;53.314;5.710;2023-11-21T07:41:57;8.90;99.90
53844;DHT22;39744;53.314;5.710;2023-11-21T07:44:23;9.20;99.90
53844;DHT22;39744;53.314;5.710;2023-11-21T07:46:48;8.90;99.90
53844;DHT22;39744;53.314;5.710;2023-11-21T07:49:15;9.10;99.90
53844;DHT22;39744;53.314;5.710;2023-11-21T07:51:43;9.10;99.90
53844;DHT22;39744;53.314;5.710;2023-11-21T07:54:09;9.10;99.90
53844;DHT22;39744;53.314;5.710;2023-11-21T07:56:35;8.90;99.90
53844;DHT22;39744;53.314;5.710;2023-11-21T07:59:01;9.00;99.90
53844;DHT22;39744;53.314;5.710;2023-11-21T08:01:26;9.00;99.90
53844;DHT22;39744;53.314;5.710;2023-11-21T08:03:53;8.90;99.90
53844;DHT22;39744;53.314;5.710;2023-11-21T08:06:23;9.10;99.90
53844;DHT22;39744;53.314;5.710;2023-11-21T08:08:49;8.90;99.90
53844;DHT22;39744;53.314;5.710;2023-11-21T08:11:14;8.90;99.90
53844;DHT22;39744;53.314;5.710;2023-11-21T08:13:40;9.10;99.90
53844;DHT22;39744;53.314;5.710;2023-11-21T08:16:05;8.90;99.90
53844;DHT22;39744;53.314;5.710;2023-11-21T08:18:32;8.90;99.90
53844;DHT22;39744;53.314;5.710;2023-11-21T08:20:59;9.20;99.90
53844;DHT22;39744;53.314;5.710;2023-11-21T08:23:24;9.00;99.90
53844;DHT22;39744;53.314;5.710;2023-11-21T08:25:53;8.90;99.90
53844;DHT22;39744;53.314;5.710;2023-11-21T08:28:19;8.90;99.90
53844;DHT22;39744;53.314;5.710;2023-11-21T08:30:48;8.90;99.90
53844;DHT22;39744;53.314;5.710;2023-11-21T08:33:14;9.00;99.90
53844;DHT22;39744;53.314;5.710;2023-11-21T08:35:39;9.00;99.90
53844;DHT22;39744;53.314;5.710;2023-11-21T08:38:05;9.10;99.90
53844;DHT22;39744;53.314;5.710;2023-11-21T08:40:31;9.00;99.90
53844;DHT22;39744;53.314;5.710;2023-11-21T08:42:56;9.10;99.90
53844;DHT22;39744;53.314;5.710;2023-11-21T08:45:24;9.20;99.90
53844;DHT22;39744;53.314;5.710;2023-11-21T08:47:50;9.00;99.90
53844;DHT22;39744;53.314;5.710;2023-11-21T08:50:16;9.20;99.90
53844;DHT22;39744;53.314;5.710;2023-11-21T08:52:42;9.10;99.90
53844;DHT22;39744;53.314;5.710;2023-11-21T08:55:07;9.00;99.90
53844;DHT22;39744;53.314;5.710;2023-11-21T08:57:36;9.10;99.90
53844;DHT22;39744;53.314;5.710;2023-11-21T09:00:08;9.10;99.90
53844;DHT22;39744;53.314;5.710;2023-11-21T09:02:38;9.30;99.90
53844;DHT22;39744;53.314;5.710;2023-11-21T09:05:05;9.30;99.90
53844;DHT22;39744;53.314;5.710;2023-11-21T09:07:30;9.30;99.90
53844;DHT22;39744;53.314;5.710;2023-11-21T09:09:56;9.30;99.90
53844;DHT22;39744;53.314;5.710;2023-11-21T09:12:21;9.50;99.90
53844;DHT22;39744;53.314;5.710;2023-11-21T09:14:47;9.40;99.90
53844;DHT22;39744;53.314;5.710;2023-11-21T09:17:12;9.40;99.90
53844;DHT22;39744;53.314;5.710;2023-11-21T09:19:39;9.50;99.90
53844;DHT22;39744;53.314;5.710;2023-11-21T09:22:05;9.40;99.90
53844;DHT22;39744;53.314;5.710;2023-11-21T09:24:31;9.50;99.90
53844;DHT22;39744;53.314;5.710;2023-11-21T09:26:57;9.60;99.90
53844;DHT22;39744;53.314;5.710;2023-11-21T09:29:28;9.60;99.90
53844;DHT22;39744;53.314;5.710;2023-11-21T09:31:54;9.70;99.90
53844;DHT22;39744;53.314;5.710;2023-11-21T09:34:21;9.80;99.90
53844;DHT22;39744;53.314;5.710;2023-11-21T09:36:47;9.90;99.90
53844;DHT22;39744;53.314;5.710;2023-11-21T09:39:13;9.90;99.90
53844;DHT22;39744;53.314;5.710;2023-11-21T09:41:49;9.80;99.90
53844;DHT22;39744;53.314;5.710;2023-11-21T09:44:17;9.90;99.90
53844;DHT22;39744;53.314;5.710;2023-11-21T09:46:47;9.90;99.90
53844;DHT22;39744;53.314;5.710;2023-11-21T09:49:15;9.70;99.90
53844;DHT22;39744;53.314;5.710;2023-11-21T09:51:43;9.70;99.90
53844;DHT22;39744;53.314;5.710;2023-11-21T09:54:09;9.60;99.90
53844;DHT22;39744;53.314;5.710;2023-11-21T09:56:36;9.60;99.90
53844;DHT22;39744;53.314;5.710;2023-11-21T09:59:02;9.60;99.90
53844;DHT22;39744;53.314;5.710;2023-11-21T10:01:32;9.60;99.90
53844;DHT22;39744;53.314;5.710;2023-11-21T10:03:58;9.50;99.90
53844;DHT22;39744;53.314;5.710;2023-11-21T10:06:25;9.50;99.90
53844;DHT22;39744;53.314;5.710;2023-11-21T10:08:52;9.40;99.90
53844;DHT22;39744;53.314;5.710;2023-11-21T10:11:19;9.40;99.90
53844;DHT22;39744;53.314;5.710;2023-11-21T10:13:45;9.40;99.90
53844;DHT22;39744;53.314;5.710;2023-11-21T10:16:12;9.40;99.90
53844;DHT22;39744;53.314;5.710;2023-11-21T10:18:39;9.40;99.90
53844;DHT22;39744;53.314;5.710;2023-11-21T10:21:06;9.40;99.90
53844;DHT22;39744;53.314;5.710;2023-11-21T10:23:32;9.30;99.90
53844;DHT22;39744;53.314;5.710;2023-11-21T10:25:58;9.20;99.90
53844;DHT22;39744;53.314;5.710;2023-11-21T10:28:24;9.20;99.90
53844;DHT22;39744;53.314;5.710;2023-11-21T10:30:51;9.10;99.90
53844;DHT22;39744;53.314;5.710;2023-11-21T10:33:18;9.00;99.90
53844;DHT22;39744;53.314;5.710;2023-11-21T10:35:54;9.00;99.90
53844;DHT22;39744;53.314;5.710;2023-11-21T10:38:21;8.90;99.90
53844;DHT22;39744;53.314;5.710;2023-11-21T10:40:48;9.00;99.90
53844;DHT22;39744;53.314;5.710;2023-11-21T10:43:16;9.00;99.90
53844;DHT22;39744;53.314;5.710;2023-11-21T10:45:42;8.90;99.90
53844;DHT22;39744;53.314;5.710;2023-11-21T10:48:08;9.00;99.90
53844;DHT22;39744;53.314;5.710;2023-11-21T10:50:36;9.00;99.90
53844;DHT22;39744;53.314;5.710;2023-11-21T10:53:02;9.00;99.90
53844;DHT22;39744;53.314;5.710;2023-11-21T10:55:29;9.00;99.90
53844;DHT22;39744;53.314;5.710;2023-11-21T10:57:55;9.00;99.90
53844;DHT22;39744;53.314;5.710;2023-11-21T11:00:23;9.10;99.90
53844;DHT22;39744;53.314;5.710;2023-11-21T11:02:51;9.10;99.90
53844;DHT22;39744;53.314;5.710;2023-11-21T11:05:19;9.30;99.90
53844;DHT22;39744;53.314;5.710;2023-11-21T11:07:45;9.40;99.90
53844;DHT22;39744;53.314;5.710;2023-11-21T11:10:12;9.50;99.90
53844;DHT22;39744;53.314;5.710;2023-11-21T11:12:40;9.50;99.90
53844;DHT22;39744;53.314;5.710;2023-11-21T11:15:06;9.50;99.90
53844;DHT22;39744;53.314;5.710;2023-11-21T11:17:36;9.50;99.90
53844;DHT22;39744;53.314;5.710;2023-11-21T11:20:04;9.40;99.90
53844;DHT22;39744;53.314;5.710;2023-11-21T11:27:55;9.60;99.90
53844;DHT22;39744;53.314;5.710;2023-11-21T11:30:46;9.60;99.90
53844;DHT22;39744;53.314;5.710;2023-11-21T11:36:11;9.60;99.90
53844;DHT22;39744;53.314;5.710;2023-11-21T11:38:38;9.70;99.90
53844;DHT22;39744;53.314;5.710;2023-11-21T11:41:04;9.80;99.90
53844;DHT22;39744;53.314;5.710;2023-11-21T11:43:30;9.70;99.90
53844;DHT22;39744;53.314;5.710;2023-11-21T11:45:58;9.60;99.90
53844;DHT22;39744;53.314;5.710;2023-11-21T11:48:28;9.60;99.90
53844;DHT22;39744;53.314;5.710;2023-11-21T11:51:01;9.50;99.90
53844;DHT22;39744;53.314;5.710;2023-11-21T11:53:32;9.70;99.90
53844;DHT22;39744;53.314;5.710;2023-11-21T11:56:31;9.80;99.90
53844;DHT22;39744;53.314;5.710;2023-11-21T11:58:51;10.00;99.90
53844;DHT22;39744;53.314;5.710;2023-11-21T12:01:20;10.00;99.90
53844;DHT22;39744;53.314;5.710;2023-11-21T12:06:34;10.00;99.90
53844;DHT22;39744;53.314;5.710;2023-11-21T12:09:03;10.20;99.90
53844;DHT22;39744;53.314;5.710;2023-11-21T12:11:32;10.20;99.90
53844;DHT22;39744;53.314;5.710;2023-11-21T12:13:59;10.20;99.90
53844;DHT22;39744;53.314;5.710;2023-11-21T12:16:29;10.00;99.90
53844;DHT22;39744;53.314;5.710;2023-11-21T12:19:01;9.90;99.90
53844;DHT22;39744;53.314;5.710;2023-11-21T12:21:27;9.60;99.90
53844;DHT22;39744;53.314;5.710;2023-11-21T12:23:53;9.50;99.90
53844;DHT22;39744;53.314;5.710;2023-11-21T12:26:18;9.60;99.90
53844;DHT22;39744;53.314;5.710;2023-11-21T12:28:51;9.60;99.90
53844;DHT22;39744;53.314;5.710;2023-11-21T12:31:16;9.80;99.90
53844;DHT22;39744;53.314;5.710;2023-11-21T12:33:42;10.10;99.90
53844;DHT22;39744;53.314;5.710;2023-11-21T12:36:09;10.20;99.90
53844;DHT22;39744;53.314;5.710;2023-11-21T12:38:36;10.30;99.90
53844;DHT22;39744;53.314;5.710;2023-11-21T12:41:02;10.20;99.90
53844;DHT22;39744;53.314;5.710;2023-11-21T12:43:28;10.00;99.90
